Time;durP1;ratioP1;P1;durP2;ratioP2;P2;SDS_P1;SDS_P2;PMS_P1;PMS_P2;Temp;Humidity;BMP_temperature;BMP_pressure;BME280_temperature;BME280_humidity;BME280_pressure;Samples;Min_cycle;Max_cycle;Signal;HPM_P1;HPM_P2
2022/11/20 00:01:33;;;;;;;14.53;10.43;;;9.70;79.20;;;-142.21;100.00;112049.66;5074123;28;20497;-75
2022/11/20 00:04:00;;;;;;;16.37;10.17;;;9.70;79.40;;;-142.21;100.00;112049.66;5074680;28;20536;-73
2022/11/20 00:06:30;;;;;;;13.10;9.87;;;9.70;79.30;;;-142.21;100.00;112049.66;5074927;28;20811;-75
2022/11/20 00:08:59;;;;;;;12.90;10.30;;;9.70;79.40;;;-142.21;100.00;112049.66;5075378;28;20431;-73
2022/11/20 00:11:29;;;;;;;13.00;10.00;;;9.70;79.40;;;-142.21;100.00;112049.66;5073566;28;20486;-72
2022/11/20 00:13:59;;;;;;;13.63;11.27;;;9.80;79.60;;;-142.21;100.00;112049.66;5062674;28;20793;-75
2022/11/20 00:16:28;;;;;;;12.17;9.67;;;9.70;79.70;;;-142.21;100.00;112049.66;5056916;28;20444;-75
2022/11/20 00:18:56;;;;;;;13.90;10.37;;;9.80;80.00;;;-142.21;100.00;112049.66;5072030;28;20443;-72
2022/11/20 00:21:27;;;;;;;13.00;10.43;;;9.70;79.60;;;-142.21;100.00;112049.66;5075052;28;20465;-74
2022/11/20 00:23:57;;;;;;;13.53;10.67;;;9.70;79.80;;;-142.21;100.00;112049.66;5074134;28;20475;-75
2022/11/20 00:26:27;;;;;;;12.93;10.87;;;9.70;80.00;;;-142.21;100.00;112049.66;5075097;28;20427;-74
2022/11/20 00:28:56;;;;;;;12.83;9.87;;;9.70;80.30;;;-142.21;100.00;112049.66;5074282;28;20527;-75
2022/11/20 00:31:24;;;;;;;13.63;10.73;;;9.80;80.50;;;-142.21;100.00;112049.66;5073389;28;20475;-73
2022/11/20 00:33:52;;;;;;;12.87;10.10;;;9.80;80.40;;;-142.21;100.00;112049.66;5074668;28;20439;-74
2022/11/20 00:36:22;;;;;;;13.53;9.57;;;9.80;80.30;;;-142.21;100.00;112049.66;5074040;28;20470;-76
2022/11/20 00:38:53;;;;;;;13.33;9.57;;;9.80;80.50;;;-142.21;100.00;112049.66;5074886;28;20443;-75
2022/11/20 00:41:22;;;;;;;12.73;8.90;;;9.80;80.40;;;-142.21;100.00;112049.66;5073397;28;20814;-75
2022/11/20 00:43:52;;;;;;;10.33;8.77;;;9.80;80.20;;;-142.21;100.00;112049.66;5074048;28;20483;-75
2022/11/20 00:46:21;;;;;;;12.20;10.00;;;9.80;80.40;;;-142.21;100.00;112049.66;5074227;28;20431;-76
2022/11/20 00:48:49;;;;;;;11.17;9.03;;;9.80;80.10;;;-142.21;100.00;112049.66;5074261;28;20439;-75
2022/11/20 00:51:19;;;;;;;10.67;8.93;;;9.70;79.60;;;-142.21;100.00;112049.66;5073691;28;20493;-74
2022/11/20 00:53:47;;;;;;;11.07;9.33;;;9.70;79.80;;;-142.21;100.00;112049.66;5064879;28;20441;-75
2022/11/20 00:56:18;;;;;;;11.53;9.40;;;9.80;79.70;;;-142.21;100.00;112049.66;5070707;28;20446;-75
2022/11/20 00:58:49;;;;;;;10.37;8.83;;;9.80;79.80;;;-142.21;100.00;112049.66;5074122;28;21132;-75
2022/11/20 01:01:19;;;;;;;12.47;9.50;;;9.70;79.30;;;-142.21;100.00;112049.66;5073765;28;20431;-75
2022/11/20 01:03:50;;;;;;;11.63;10.00;;;9.60;79.80;;;-142.21;100.00;112049.66;5062745;28;20548;-74
2022/11/20 01:06:20;;;;;;;12.87;9.47;;;9.60;80.70;;;-142.21;100.00;112049.66;5071725;28;20440;-74
2022/11/20 01:08:49;;;;;;;11.27;9.60;;;9.60;80.80;;;-142.21;100.00;112049.66;5074124;28;20538;-74
2022/11/20 01:11:19;;;;;;;11.80;10.07;;;9.60;80.70;;;-142.21;100.00;112049.66;5073215;28;20829;-75
2022/11/20 01:13:49;;;;;;;13.33;9.83;;;9.60;80.60;;;-142.21;100.00;112049.66;5073182;28;20803;-75
2022/11/20 01:16:19;;;;;;;11.93;9.77;;;9.60;81.00;;;-142.21;100.00;112049.66;5071139;28;20962;-76
2022/11/20 01:18:49;;;;;;;11.97;9.60;;;9.60;81.00;;;-142.21;100.00;112049.66;5073851;28;20447;-74
2022/11/20 01:21:20;;;;;;;13.00;9.83;;;9.60;81.00;;;-142.21;100.00;112049.66;5072733;28;20459;-74
2022/11/20 01:23:48;;;;;;;12.97;9.70;;;9.60;81.10;;;-142.21;100.00;112049.66;5064087;28;20475;-75
2022/11/20 01:26:18;;;;;;;13.03;9.93;;;9.60;81.20;;;-142.21;100.00;112049.66;5071616;28;20435;-75
2022/11/20 01:28:48;;;;;;;11.00;9.53;;;9.50;82.20;;;-142.21;100.00;112049.66;5073280;28;20435;-73
2022/11/20 01:31:18;;;;;;;11.67;10.47;;;9.50;81.70;;;-142.21;100.00;112049.66;5072634;28;20497;-74
2022/11/20 01:33:50;;;;;;;10.90;9.07;;;9.50;81.80;;;-142.21;100.00;112049.66;5065251;28;20446;-74
2022/11/20 01:36:18;;;;;;;12.53;9.73;;;9.50;81.80;;;-142.21;100.00;112049.66;5072895;28;20458;-74
2022/11/20 01:38:45;;;;;;;12.10;10.10;;;9.60;81.90;;;-142.21;100.00;112049.66;5070902;28;20545;-74
2022/11/20 01:43:20;;;;;;;11.87;9.47;;;9.60;81.90;;;-142.21;100.00;112049.66;5071556;28;20462;-75
2022/11/20 01:44:04;;;;;;;12.27;9.47;;;9.60;81.90;;;-142.21;100.00;112049.66;5069054;28;20440;-75
2022/11/20 01:46:33;;;;;;;11.57;9.83;;;9.50;82.30;;;-142.21;100.00;112049.66;5073044;28;20443;-75
2022/11/20 01:49:05;;;;;;;12.67;9.73;;;9.40;82.70;;;-142.21;100.00;112049.66;5064342;28;20551;-75
2022/11/20 01:51:43;;;;;;;12.50;9.90;;;9.40;82.90;;;-142.21;100.00;112049.66;5054196;28;20490;-75
2022/11/20 01:54:17;;;;;;;13.47;10.13;;;9.50;83.10;;;-142.21;100.00;112049.66;5070297;28;20439;-75
2022/11/20 01:56:49;;;;;;;14.07;9.77;;;9.50;83.10;;;-142.21;100.00;112049.66;5072597;28;20526;-74
2022/11/20 01:59:20;;;;;;;11.70;9.47;;;9.50;83.40;;;-142.21;100.00;112049.66;5072312;28;20819;-74
2022/11/20 02:01:48;;;;;;;13.20;9.70;;;9.60;83.50;;;-142.21;100.00;112049.66;5072684;28;20451;-75
2022/11/20 02:04:17;;;;;;;14.03;9.80;;;9.60;83.50;;;-142.21;100.00;112049.66;5071400;28;20443;-74
2022/11/20 02:06:49;;;;;;;15.07;10.07;;;9.60;83.50;;;-142.21;100.00;112049.66;5072663;28;20927;-74
2022/11/20 02:09:17;;;;;;;12.83;9.90;;;9.60;83.80;;;-142.21;100.00;112049.66;5072121;28;20451;-75
2022/11/20 02:11:45;;;;;;;11.30;9.10;;;9.70;83.80;;;-142.21;100.00;112049.66;5072225;28;20573;-74
2022/11/20 02:14:11;;;;;;;10.47;8.97;;;9.80;84.10;;;-142.21;100.00;112049.66;5063448;28;20450;-75
2022/11/20 02:16:47;;;;;;;10.53;8.50;;;9.80;84.10;;;-142.21;100.00;112049.66;5072711;28;20543;-75
2022/11/20 02:19:27;;;;;;;9.77;8.07;;;9.80;84.70;;;-142.21;100.00;112049.66;5044261;28;20443;-74
2022/11/20 02:22:03;;;;;;;10.90;8.43;;;9.90;85.10;;;-142.21;100.00;112049.66;5072323;28;20971;-74
2022/11/20 02:24:32;;;;;;;8.17;7.23;;;9.90;85.30;;;-142.21;100.00;112049.66;5051561;28;20486;-74
2022/11/20 02:27:04;;;;;;;12.23;8.67;;;10.00;84.40;;;-142.21;100.00;112049.66;5072184;28;20444;-75
2022/11/20 02:29:40;;;;;;;8.70;7.40;;;10.10;84.60;;;-142.21;100.00;112049.66;5069993;28;20435;-75
2022/11/20 02:32:19;;;;;;;9.93;7.50;;;10.10;84.70;;;-142.21;100.00;112049.66;5069881;28;20486;-74
2022/11/20 02:34:46;;;;;;;9.93;7.50;;;10.10;84.70;;;-142.21;100.00;112049.66;5072300;28;20443;-74
2022/11/20 02:37:15;;;;;;;10.10;7.73;;;10.20;85.00;;;-142.21;100.00;112049.66;5071335;28;20469;-75
2022/11/20 02:39:45;;;;;;;9.13;7.40;;;10.30;85.00;;;-142.21;100.00;112049.66;5069771;28;20448;-75
2022/11/20 02:42:12;;;;;;;7.90;7.00;;;10.30;84.80;;;-142.21;100.00;112049.66;5033398;28;20471;-74
2022/11/20 02:44:40;;;;;;;9.37;6.87;;;10.30;84.70;;;-142.21;100.00;112049.66;5071866;28;20439;-74
2022/11/20 02:47:07;;;;;;;7.50;6.30;;;10.30;85.10;;;-142.21;100.00;112049.66;5071435;28;20781;-74
2022/11/20 02:49:35;;;;;;;8.13;6.83;;;10.30;85.20;;;-142.21;100.00;112049.66;5072262;28;20772;-74
2022/11/20 02:52:02;;;;;;;9.10;7.20;;;10.30;85.20;;;-142.21;100.00;112049.66;5071634;28;20497;-74
2022/11/20 02:54:30;;;;;;;11.03;7.20;;;10.30;85.40;;;-142.21;100.00;112049.66;5071097;28;20470;-75
2022/11/20 02:56:59;;;;;;;7.60;6.63;;;10.30;86.00;;;-142.21;100.00;112049.66;5071434;28;20439;-74
2022/11/20 02:59:26;;;;;;;8.70;6.50;;;10.30;85.40;;;-142.21;100.00;112049.66;5064004;28;20788;-74
2022/11/20 03:01:53;;;;;;;7.50;6.40;;;10.30;85.20;;;-142.21;100.00;112049.66;5070197;28;20848;-74
2022/11/20 03:04:20;;;;;;;7.10;5.67;;;10.40;85.30;;;-142.21;100.00;112049.66;5051505;28;20928;-74
2022/11/20 03:06:47;;;;;;;7.97;5.87;;;10.40;85.30;;;-142.21;100.00;112049.66;5062944;28;20978;-74
2022/11/20 03:09:14;;;;;;;6.17;5.53;;;10.40;85.10;;;-142.21;100.00;112049.66;5071360;28;20443;-74
2022/11/20 03:11:41;;;;;;;7.53;5.90;;;10.40;85.30;;;-142.21;100.00;112049.66;5071341;28;20850;-74
2022/11/20 03:14:10;;;;;;;8.17;5.80;;;10.50;85.10;;;-142.21;100.00;112049.66;5071094;28;20456;-75
2022/11/20 03:16:37;;;;;;;9.37;6.00;;;10.40;85.60;;;-142.21;100.00;112049.66;5072214;28;20492;-75
2022/11/20 03:19:04;;;;;;;7.13;6.00;;;10.40;85.00;;;-142.21;100.00;112049.66;5071216;28;20477;-75
2022/11/20 03:21:33;;;;;;;7.90;5.63;;;10.50;84.90;;;-142.21;100.00;112049.66;5070891;28;20462;-75
2022/11/20 03:24:01;;;;;;;7.17;6.10;;;10.60;84.70;;;-142.21;100.00;112049.66;5071091;28;20565;-75
2022/11/20 03:26:29;;;;;;;7.70;5.80;;;10.60;84.70;;;-142.21;100.00;112049.66;5071076;28;20455;-74
2022/11/20 03:28:59;;;;;;;14.20;5.70;;;10.70;84.50;;;-142.21;100.00;112049.66;5071549;28;20462;-74
2022/11/20 03:31:30;;;;;;;6.00;5.30;;;10.60;84.00;;;-142.21;100.00;112049.66;5070950;28;20555;-74
2022/11/20 03:33:59;;;;;;;7.90;5.93;;;10.60;84.20;;;-142.21;100.00;112049.66;5070801;28;20485;-74
2022/11/20 03:36:27;;;;;;;7.77;5.30;;;10.70;84.10;;;-142.21;100.00;112049.66;5070359;28;20443;-74
2022/11/20 03:38:55;;;;;;;6.87;5.20;;;10.70;84.00;;;-142.21;100.00;112049.66;5062692;28;20533;-73
2022/11/20 03:41:25;;;;;;;6.03;5.23;;;10.60;83.90;;;-142.21;100.00;112049.66;5070627;28;20454;-74
2022/11/20 03:43:55;;;;;;;6.83;5.30;;;10.70;84.00;;;-142.21;100.00;112049.66;5070790;28;20440;-74
2022/11/20 03:46:22;;;;;;;6.10;4.97;;;10.70;84.00;;;-142.21;100.00;112049.66;5070911;28;20775;-74
2022/11/20 03:48:51;;;;;;;5.30;4.80;;;10.70;83.40;;;-142.21;100.00;112049.66;5071768;28;20466;-74
2022/11/20 03:51:21;;;;;;;7.13;5.40;;;10.70;83.70;;;-142.21;100.00;112049.66;5069362;28;20481;-74
2022/11/20 03:53:51;;;;;;;8.40;4.77;;;10.70;83.50;;;-142.21;100.00;112049.66;5071075;28;20435;-74
2022/11/20 03:56:21;;;;;;;8.40;5.40;;;10.60;83.20;;;-142.21;100.00;112049.66;5070757;28;20439;-74
2022/11/20 03:58:48;;;;;;;5.77;4.93;;;10.60;83.50;;;-142.21;100.00;112049.66;5071619;28;20442;-74
2022/11/20 04:01:18;;;;;;;5.00;4.30;;;10.60;83.50;;;-142.21;100.00;112049.66;5070633;28;20439;-75
2022/11/20 04:03:46;;;;;;;5.80;4.50;;;10.60;83.10;;;-142.21;100.00;112049.66;5069165;28;20435;-74
2022/11/20 04:06:17;;;;;;;7.17;4.67;;;10.60;83.00;;;-142.21;100.00;112049.66;5059484;28;20483;-73
2022/11/20 04:08:45;;;;;;;6.50;4.70;;;10.60;83.00;;;-142.21;100.00;112049.66;5068524;28;20443;-74
2022/11/20 04:11:14;;;;;;;6.13;4.53;;;10.60;83.00;;;-142.21;100.00;112049.66;5074438;28;20479;-74
2022/11/20 04:13:43;;;;;;;6.90;4.80;;;10.60;83.00;;;-142.21;100.00;112049.66;5073070;28;20439;-74
2022/11/20 04:16:11;;;;;;;6.47;4.67;;;10.60;82.90;;;-142.21;100.00;112049.66;5068819;28;20443;-73
2022/11/20 04:18:38;;;;;;;7.03;4.50;;;10.70;82.80;;;-142.21;100.00;112049.66;5074096;28;20447;-74
2022/11/20 04:21:07;;;;;;;6.97;4.43;;;10.70;82.70;;;-142.21;100.00;112049.66;5074462;28;21130;-74
2022/11/20 04:23:36;;;;;;;6.27;4.20;;;10.70;82.70;;;-142.21;100.00;112049.66;5072985;28;20475;-74
2022/11/20 04:26:05;;;;;;;5.93;4.53;;;10.70;82.70;;;-142.21;100.00;112049.66;5063794;28;20436;-73
2022/11/20 04:28:33;;;;;;;5.40;4.47;;;10.80;82.60;;;-142.21;100.00;112049.66;5066663;28;20531;-74
2022/11/20 04:31:05;;;;;;;4.70;3.97;;;10.80;82.20;;;-142.21;100.00;112049.66;5062654;28;20448;-74
2022/11/20 04:33:32;;;;;;;4.80;4.20;;;10.80;82.50;;;-142.21;100.00;112049.66;5058517;28;20455;-74
2022/11/20 04:36:04;;;;;;;4.67;4.17;;;10.80;82.60;;;-142.21;100.00;112049.66;5071710;28;20444;-74
2022/11/20 04:38:31;;;;;;;6.40;4.37;;;10.70;82.20;;;-142.21;100.00;112049.66;5073982;28;20916;-74
2022/11/20 04:41:02;;;;;;;5.33;4.23;;;10.70;82.40;;;-142.21;100.00;112049.66;5073702;28;20447;-74
2022/11/20 04:43:29;;;;;;;4.17;3.77;;;10.70;82.30;;;-142.21;100.00;112049.66;5073932;28;20526;-74
2022/11/20 04:45:59;;;;;;;5.97;4.37;;;10.80;82.40;;;-142.21;100.00;112049.66;5073771;28;20454;-74
2022/11/20 04:48:28;;;;;;;5.57;4.67;;;10.80;82.20;;;-142.21;100.00;112049.66;5073597;28;20451;-74
2022/11/20 04:50:58;;;;;;;6.07;4.13;;;10.80;82.30;;;-142.21;100.00;112049.66;5073366;28;20907;-74
2022/11/20 04:53:26;;;;;;;4.43;4.03;;;10.80;82.00;;;-142.21;100.00;112049.66;5073421;28;20474;-74
2022/11/20 04:56:02;;;;;;;4.00;3.60;;;10.80;81.70;;;-142.21;100.00;112049.66;5073063;28;20447;-74
2022/11/20 04:58:30;;;;;;;5.43;4.70;;;10.80;81.80;;;-142.21;100.00;112049.66;5054306;28;20522;-74
2022/11/20 05:01:03;;;;;;;4.77;4.27;;;10.70;81.80;;;-142.21;100.00;112049.66;5073554;28;20439;-73
2022/11/20 05:03:31;;;;;;;6.57;3.90;;;10.70;81.90;;;-142.21;100.00;112049.66;5072815;28;20455;-74
2022/11/20 05:06:01;;;;;;;5.43;4.17;;;10.70;81.90;;;-142.21;100.00;112049.66;5062668;28;20443;-74
2022/11/20 05:08:29;;;;;;;7.07;4.60;;;10.70;82.20;;;-142.21;100.00;112049.66;5072670;28;20432;-74
2022/11/20 05:11:02;;;;;;;4.37;3.97;;;10.80;82.10;;;-142.21;100.00;112049.66;5061889;28;20462;-73
2022/11/20 05:13:30;;;;;;;5.10;4.20;;;10.80;81.90;;;-142.21;100.00;112049.66;5072878;28;20468;-74
2022/11/20 05:16:03;;;;;;;5.17;4.47;;;10.80;82.40;;;-142.21;100.00;112049.66;5073215;28;20825;-74
2022/11/20 05:18:30;;;;;;;5.60;4.17;;;10.70;81.50;;;-142.21;100.00;112049.66;5071725;28;20443;-74
2022/11/20 05:20:58;;;;;;;4.50;3.80;;;10.80;81.60;;;-142.21;100.00;112049.66;5073137;28;20469;-74
2022/11/20 05:23:26;;;;;;;5.23;4.13;;;10.80;81.60;;;-142.21;100.00;112049.66;5072702;28;20525;-74
2022/11/20 05:25:54;;;;;;;4.90;4.33;;;10.80;81.40;;;-142.21;100.00;112049.66;5073226;28;20442;-74
2022/11/20 05:28:23;;;;;;;4.37;3.87;;;10.80;81.60;;;-142.21;100.00;112049.66;5068048;28;20446;-73
2022/11/20 05:30:51;;;;;;;4.97;4.10;;;10.80;81.40;;;-142.21;100.00;112049.66;5073269;28;20451;-74
2022/11/20 05:33:19;;;;;;;4.40;4.00;;;10.80;81.50;;;-142.21;100.00;112049.66;5072961;28;20493;-76
2022/11/20 05:35:48;;;;;;;5.17;4.07;;;10.90;81.40;;;-142.21;100.00;112049.66;5072704;28;20452;-75
2022/11/20 05:38:15;;;;;;;5.27;4.50;;;10.80;81.90;;;-142.21;100.00;112049.66;5072086;28;20452;-75
2022/11/20 05:40:42;;;;;;;4.80;4.17;;;10.80;81.30;;;-142.21;100.00;112049.66;5073281;28;20450;-74
2022/11/20 05:43:09;;;;;;;4.57;4.10;;;10.80;81.20;;;-142.21;100.00;112049.66;5073189;28;20448;-75
2022/11/20 05:45:38;;;;;;;4.33;3.70;;;10.80;81.30;;;-142.21;100.00;112049.66;5072054;28;20454;-75
2022/11/20 05:48:08;;;;;;;3.93;3.53;;;10.80;81.00;;;-142.21;100.00;112049.66;5073163;28;20448;-73
2022/11/20 05:50:36;;;;;;;4.20;3.80;;;10.70;81.00;;;-142.21;100.00;112049.66;5073141;28;21251;-74
2022/11/20 05:53:03;;;;;;;4.40;3.73;;;10.70;81.10;;;-142.21;100.00;112049.66;5072694;28;20490;-75
2022/11/20 05:55:30;;;;;;;5.53;4.37;;;10.70;81.30;;;-142.21;100.00;112049.66;5069139;28;20448;-74
2022/11/20 05:57:57;;;;;;;4.10;3.40;;;10.70;81.10;;;-142.21;100.00;112049.66;5073100;28;20789;-75
2022/11/20 06:00:24;;;;;;;6.03;3.53;;;10.80;81.60;;;-142.21;100.00;112049.66;5072551;28;20773;-74
2022/11/20 06:02:53;;;;;;;4.83;3.37;;;10.70;81.10;;;-142.21;100.00;112049.66;5072753;28;20461;-74
2022/11/20 06:05:20;;;;;;;4.20;3.50;;;10.70;81.10;;;-142.21;100.00;112049.66;5072125;28;20453;-75
2022/11/20 06:07:47;;;;;;;5.03;3.77;;;10.80;81.30;;;-142.21;100.00;112049.66;5072453;28;20985;-76
2022/11/20 06:10:14;;;;;;;5.77;3.77;;;10.70;81.10;;;-142.21;100.00;112049.66;5072636;28;20443;-73
2022/11/20 06:12:41;;;;;;;3.47;3.00;;;10.80;81.40;;;-142.21;100.00;112049.66;5072489;28;20475;-75
2022/11/20 06:15:10;;;;;;;4.50;3.60;;;10.80;81.00;;;-142.21;100.00;112049.66;5038888;28;20462;-75
2022/11/20 06:17:37;;;;;;;4.03;3.63;;;10.70;80.70;;;-142.21;100.00;112049.66;5071939;28;20469;-75
2022/11/20 06:20:08;;;;;;;3.20;2.90;;;10.70;80.40;;;-142.21;100.00;112049.66;5072746;28;20840;-75
2022/11/20 06:22:35;;;;;;;4.60;3.50;;;10.70;80.80;;;-142.21;100.00;112049.66;5071820;28;20459;-73
2022/11/20 06:25:02;;;;;;;3.87;3.20;;;10.70;80.70;;;-142.21;100.00;112049.66;5068190;28;20485;-74
2022/11/20 06:27:29;;;;;;;3.87;3.40;;;10.70;80.70;;;-142.21;100.00;112049.66;5072127;28;20443;-73
2022/11/20 06:29:56;;;;;;;3.83;3.13;;;10.80;80.70;;;-142.21;100.00;112049.66;5072027;28;20450;-75
2022/11/20 06:32:23;;;;;;;3.63;3.10;;;10.70;80.40;;;-142.21;100.00;112049.66;5069885;28;20494;-75
2022/11/20 06:34:51;;;;;;;3.90;3.10;;;10.70;80.40;;;-142.21;100.00;112049.66;5063464;28;20435;-74
2022/11/20 06:37:19;;;;;;;3.57;2.90;;;10.70;80.70;;;-142.21;100.00;112049.66;5072232;28;20443;-71
2022/11/20 06:39:46;;;;;;;3.30;2.97;;;10.70;80.30;;;-142.21;100.00;112049.66;5072313;28;20534;-74
2022/11/20 06:42:13;;;;;;;3.77;3.30;;;10.70;80.20;;;-142.21;100.00;112049.66;5072431;28;20435;-74
2022/11/20 06:44:40;;;;;;;4.63;3.00;;;10.80;80.40;;;-142.21;100.00;112049.66;5063724;28;20563;-75
2022/11/20 06:47:08;;;;;;;3.63;2.87;;;10.70;80.20;;;-142.21;100.00;112049.66;5072230;28;20538;-75
2022/11/20 06:49:36;;;;;;;3.87;3.00;;;10.70;80.20;;;-142.21;100.00;112049.66;5071814;28;20450;-74
2022/11/20 06:52:04;;;;;;;4.07;3.00;;;10.70;81.10;;;-142.21;100.00;112049.66;5072518;28;20483;-76
2022/11/20 06:54:32;;;;;;;3.37;3.07;;;10.70;80.30;;;-142.21;100.00;112049.66;5070685;28;20443;-76
2022/11/20 06:57:00;;;;;;;4.93;2.90;;;10.60;80.00;;;-142.21;100.00;112049.66;5072408;28;20457;-75
2022/11/20 06:59:27;;;;;;;4.20;3.00;;;10.50;80.50;;;-142.21;100.00;112049.66;5071271;28;20518;-74
2022/11/20 07:01:54;;;;;;;5.00;3.20;;;10.60;80.80;;;-142.21;100.00;112049.66;5072197;28;20455;-76
2022/11/20 07:04:21;;;;;;;3.80;3.37;;;10.60;80.50;;;-142.21;100.00;112049.66;5023909;28;20455;-75
2022/11/20 07:06:49;;;;;;;5.03;3.13;;;10.60;80.70;;;-142.21;100.00;112049.66;5068550;28;20439;-74
2022/11/20 07:09:17;;;;;;;5.63;3.20;;;10.50;80.50;;;-142.21;100.00;112049.66;5072000;28;20490;-75
2022/11/20 07:11:45;;;;;;;3.30;3.00;;;10.60;81.10;;;-142.21;100.00;112049.66;5071446;28;20443;-74
2022/11/20 07:14:12;;;;;;;4.03;3.07;;;10.60;80.60;;;-142.21;100.00;112049.66;5061918;28;21189;-75
2022/11/20 07:16:39;;;;;;;3.13;2.67;;;10.50;81.00;;;-142.21;100.00;112049.66;5068183;28;20443;-74
2022/11/20 07:19:06;;;;;;;3.17;2.67;;;10.60;81.30;;;-142.21;100.00;112049.66;5071478;28;21011;-74
2022/11/20 07:21:33;;;;;;;3.70;2.90;;;10.70;81.00;;;-142.21;100.00;112049.66;5071441;28;20466;-74
2022/11/20 07:24:01;;;;;;;2.90;2.70;;;10.70;81.10;;;-142.21;100.00;112049.66;5070323;28;20494;-75
2022/11/20 07:26:28;;;;;;;3.50;2.73;;;10.70;81.00;;;-142.21;100.00;112049.66;5071420;28;20482;-74
2022/11/20 07:28:56;;;;;;;2.73;2.53;;;10.70;81.10;;;-142.21;100.00;112049.66;5071856;28;20782;-75
2022/11/20 07:31:24;;;;;;;2.53;2.33;;;10.70;81.30;;;-142.21;100.00;112049.66;5071316;28;20534;-75
2022/11/20 07:33:51;;;;;;;3.47;3.17;;;10.70;81.90;;;-142.21;100.00;112049.66;5069943;28;20998;-76
2022/11/20 07:36:19;;;;;;;2.83;2.53;;;10.70;81.90;;;-142.21;100.00;112049.66;5071520;28;20445;-74
2022/11/20 07:38:46;;;;;;;3.83;3.30;;;10.70;82.20;;;-142.21;100.00;112049.66;5071626;28;20493;-74
2022/11/20 07:41:13;;;;;;;3.40;3.10;;;10.60;82.60;;;-142.21;100.00;112049.66;5071833;28;20448;-74
2022/11/20 07:43:40;;;;;;;4.70;3.20;;;10.60;83.00;;;-142.21;100.00;112049.66;5074177;28;20554;-74
2022/11/20 07:46:09;;;;;;;2.73;2.53;;;10.60;83.00;;;-142.21;100.00;112049.66;5074972;28;20939;-76
2022/11/20 07:48:36;;;;;;;3.23;2.73;;;10.60;83.80;;;-142.21;100.00;112049.66;5075147;28;20442;-74
2022/11/20 07:51:04;;;;;;;3.83;3.10;;;10.60;83.40;;;-142.21;100.00;112049.66;5075675;28;20942;-76
2022/11/20 07:53:31;;;;;;;4.07;2.60;;;10.60;83.40;;;-142.21;100.00;112049.66;5075050;28;20562;-76
2022/11/20 07:56:01;;;;;;;3.50;3.17;;;10.60;83.00;;;-142.21;100.00;112049.66;5074847;28;20525;-75
2022/11/20 07:58:32;;;;;;;4.33;3.03;;;10.60;83.70;;;-142.21;100.00;112049.66;5074556;28;20428;-74
2022/11/20 08:01:03;;;;;;;3.73;3.33;;;10.60;83.40;;;-142.21;100.00;112049.66;5075084;28;20972;-75
2022/11/20 08:03:32;;;;;;;3.40;3.10;;;10.70;83.70;;;-142.21;100.00;112049.66;5058590;28;20486;-75
2022/11/20 08:06:01;;;;;;;4.00;3.23;;;10.60;83.40;;;-142.21;100.00;112049.66;5058680;28;20454;-75
2022/11/20 08:08:29;;;;;;;5.03;3.10;;;10.60;84.20;;;-142.21;100.00;112049.66;5057442;28;20476;-73
2022/11/20 08:14:11;;;;;;;6.53;3.60;;;10.60;84.50;;;-142.21;100.00;112049.66;5074871;28;20457;-76
2022/11/20 08:16:31;;;;;;;4.20;3.70;;;10.70;84.40;;;-142.21;100.00;112049.66;5073687;28;20485;-75
2022/11/20 08:18:59;;;;;;;4.20;3.80;;;10.70;84.60;;;-142.21;100.00;112049.66;5074345;28;20487;-77
2022/11/20 08:21:26;;;;;;;4.13;3.63;;;10.60;84.60;;;-142.21;100.00;112049.66;5074409;28;20506;-76
2022/11/20 08:23:54;;;;;;;4.87;3.63;;;10.70;84.50;;;-142.21;100.00;112049.66;5074271;28;20561;-76
2022/11/20 08:26:23;;;;;;;3.90;3.50;;;10.60;84.60;;;-142.21;100.00;112049.66;5072526;28;20479;-77
2022/11/20 08:28:50;;;;;;;4.60;3.40;;;10.60;85.00;;;-142.21;100.00;112049.66;5072410;28;20538;-76
2022/11/20 08:31:17;;;;;;;4.70;3.90;;;10.60;85.00;;;-142.21;100.00;112049.66;5074915;28;20447;-76
2022/11/20 08:33:45;;;;;;;4.00;3.60;;;10.60;85.00;;;-142.21;100.00;112049.66;5073827;28;20521;-76
2022/11/20 08:36:13;;;;;;;4.20;3.47;;;10.60;85.00;;;-142.21;100.00;112049.66;5075018;28;20533;-77
2022/11/20 08:38:40;;;;;;;4.20;3.50;;;10.60;85.20;;;-142.21;100.00;112049.66;5074355;28;20539;-76
2022/11/20 08:41:26;;;;;;;6.10;3.70;;;10.60;85.20;;;-142.21;100.00;112049.66;5074508;28;20551;-75
2022/11/20 08:43:56;;;;;;;4.10;3.63;;;10.60;85.50;;;-142.21;100.00;112049.66;5065551;28;20861;-75
2022/11/20 08:46:25;;;;;;;4.40;3.20;;;10.60;85.60;;;-142.21;100.00;112049.66;5073347;28;20534;-75
2022/11/20 08:48:53;;;;;;;4.80;3.83;;;10.60;85.20;;;-142.21;100.00;112049.66;5074317;28;20588;-74
2022/11/20 08:51:22;;;;;;;4.07;3.50;;;10.60;85.50;;;-142.21;100.00;112049.66;5074650;28;20467;-75
2022/11/20 08:53:50;;;;;;;4.87;3.57;;;10.60;85.20;;;-142.21;100.00;112049.66;5072638;28;20479;-75
2022/11/20 08:56:18;;;;;;;4.27;3.53;;;10.70;85.30;;;-142.21;100.00;112049.66;5072788;28;20928;-73
2022/11/20 08:58:46;;;;;;;5.10;4.23;;;10.80;85.00;;;-142.21;100.00;112049.66;5073888;28;20447;-72
2022/11/20 09:01:13;;;;;;;3.63;3.27;;;10.80;84.70;;;-142.21;100.00;112049.66;5073358;28;20769;-72
2022/11/20 09:03:41;;;;;;;4.00;3.70;;;10.80;85.10;;;-142.21;100.00;112049.66;5073020;28;20450;-71
2022/11/20 09:06:09;;;;;;;4.73;3.60;;;10.70;84.60;;;-142.21;100.00;112049.66;5040371;28;20451;-68
2022/11/20 09:08:38;;;;;;;4.07;3.43;;;10.70;84.70;;;-142.21;100.00;112049.66;5072847;28;20877;-72
2022/11/20 09:11:06;;;;;;;3.90;3.40;;;10.70;85.00;;;-142.21;100.00;112049.66;5054552;28;20428;-71
2022/11/20 09:13:36;;;;;;;4.37;3.30;;;10.70;85.10;;;-142.21;100.00;112049.66;5072244;28;20566;-71
2022/11/20 09:16:07;;;;;;;4.40;3.70;;;10.60;85.50;;;-142.21;100.00;112049.66;5073675;28;20474;-73
2022/11/20 09:18:37;;;;;;;5.03;3.67;;;10.60;86.20;;;-142.21;100.00;112049.66;5068917;28;20463;-73
2022/11/20 09:21:11;;;;;;;4.30;3.40;;;10.60;86.30;;;-142.21;100.00;112049.66;5073348;28;20850;-72
2022/11/20 09:23:40;;;;;;;6.23;4.77;;;10.70;86.10;;;-142.21;100.00;112049.66;5071072;28;20476;-72
2022/11/20 09:26:11;;;;;;;3.97;3.60;;;10.80;86.50;;;-142.21;100.00;112049.66;5072912;28;20803;-71
2022/11/20 09:28:38;;;;;;;4.00;3.60;;;10.90;86.30;;;-142.21;100.00;112049.66;5072913;28;20436;-71
2022/11/20 09:31:07;;;;;;;5.47;3.93;;;10.90;86.30;;;-142.21;100.00;112049.66;5073130;28;20458;-71
2022/11/20 09:33:34;;;;;;;5.27;3.60;;;10.90;86.00;;;-142.21;100.00;112049.66;5071538;28;20485;-72
2022/11/20 09:36:02;;;;;;;4.10;3.70;;;10.90;86.10;;;-142.21;100.00;112049.66;5073310;28;20486;-72
2022/11/20 09:38:29;;;;;;;5.00;3.70;;;11.00;86.10;;;-142.21;100.00;112049.66;5071973;28;20497;-71
2022/11/20 09:41:04;;;;;;;4.20;3.53;;;11.00;85.90;;;-142.21;100.00;112049.66;5073377;28;20830;-72
2022/11/20 09:43:50;;;;;;;5.17;3.27;;;11.00;86.00;;;-142.21;100.00;112049.66;5071701;28;20455;-71
2022/11/20 09:46:30;;;;;;;4.13;3.23;;;11.10;86.10;;;-142.21;100.00;112049.66;5072995;28;20489;-71
2022/11/20 09:49:24;;;;;;;3.63;3.30;;;11.10;86.00;;;-142.21;100.00;112049.66;5073388;28;20513;-72
2022/11/20 09:51:59;;;;;;;3.63;3.33;;;11.20;85.80;;;-142.21;100.00;112049.66;5072724;28;20858;-73
2022/11/20 09:54:32;;;;;;;3.63;3.33;;;11.00;86.00;;;-142.21;100.00;112049.66;5071148;28;20459;-72
2022/11/20 09:57:06;;;;;;;3.80;3.40;;;11.00;86.40;;;-142.21;100.00;112049.66;5067548;28;20527;-72
2022/11/20 09:59:42;;;;;;;7.30;3.60;;;10.90;86.40;;;-142.21;100.00;112049.66;5069438;28;20469;-72
2022/11/20 10:02:28;;;;;;;3.53;3.23;;;10.90;86.70;;;-142.21;100.00;112049.66;5072214;28;20458;-72
2022/11/20 10:05:05;;;;;;;4.50;3.87;;;10.90;86.10;;;-142.21;100.00;112049.66;5072108;28;20518;-72